createdAt,value
2019-04-27T00:00:00.030Z,3.93
2019-04-27T00:02:57.445Z,5.57
2019-04-27T00:05:38.966Z,4.63
2019-04-27T00:08:35.209Z,6.33
2019-04-27T00:11:08.813Z,4.43
2019-04-27T00:13:40.569Z,4.20
2019-04-27T00:16:28.434Z,5.80
2019-04-27T00:19:17.776Z,6.97
2019-04-27T00:22:09.795Z,4.07
2019-04-27T00:24:40.394Z,4.83
2019-04-27T00:27:11.004Z,4.07
2019-04-27T00:29:40.297Z,4.90
2019-04-27T00:32:09.811Z,6.43
2019-04-27T00:34:39.240Z,4.53
2019-04-27T00:37:30.392Z,3.00
2019-04-27T00:40:03.482Z,2.60
2019-04-27T00:42:33.672Z,3.20
2019-04-27T00:45:05.443Z,3.30
2019-04-27T00:47:35.132Z,3.73
2019-04-27T00:50:05.167Z,5.83
2019-04-27T00:52:34.823Z,3.27
2019-04-27T00:55:04.706Z,6.47
2019-04-27T00:57:41.429Z,4.53
2019-04-27T01:00:47.598Z,3.50
2019-04-27T01:03:25.275Z,4.37
2019-04-27T01:05:54.596Z,2.57
2019-04-27T01:08:23.970Z,3.73
2019-04-27T01:10:53.769Z,4.73
2019-04-27T01:13:23.154Z,2.43
2019-04-27T01:15:54.036Z,3.63
2019-04-27T01:18:23.465Z,3.80
2019-04-27T01:20:52.830Z,4.00
2019-04-27T01:23:22.137Z,4.67
2019-04-27T01:26:04.924Z,7.67
2019-04-27T01:28:39.522Z,2.93
2019-04-27T01:31:10.942Z,4.13
2019-04-27T01:33:40.243Z,3.10
2019-04-27T01:36:10.758Z,3.00
2019-04-27T01:38:41.003Z,3.70
2019-04-27T01:41:10.512Z,3.10
2019-04-27T01:43:39.848Z,5.93
2019-04-27T01:46:09.211Z,2.30
2019-04-27T01:48:38.793Z,2.40
2019-04-27T01:51:09.314Z,3.27
2019-04-27T01:53:39.078Z,3.60
2019-04-27T01:56:09.333Z,3.50
2019-04-27T01:58:39.889Z,4.53
2019-04-27T02:01:32.110Z,2.40
2019-04-27T02:04:19.412Z,3.40
2019-04-27T02:06:51.337Z,2.60
2019-04-27T02:09:22.254Z,2.67
2019-04-27T02:11:51.759Z,3.77
2019-04-27T02:14:21.147Z,3.47
2019-04-27T02:16:50.463Z,3.43
2019-04-27T02:19:19.780Z,2.13
2019-04-27T02:21:51.310Z,3.07
2019-04-27T02:24:20.227Z,3.23
2019-04-27T02:26:49.774Z,2.63
2019-04-27T02:29:29.355Z,4.03
2019-04-27T02:32:13.916Z,3.20
2019-04-27T02:34:51.787Z,3.10
2019-04-27T02:37:21.120Z,3.27
2019-04-27T02:39:50.458Z,5.67
2019-04-27T02:42:20.742Z,4.80
2019-04-27T02:44:50.097Z,2.60
2019-04-27T02:47:20.977Z,3.30
2019-04-27T02:49:51.013Z,3.07
2019-04-27T02:52:33.877Z,3.43
2019-04-27T02:55:03.988Z,6.13
2019-04-27T02:57:33.319Z,4.43
2019-04-27T03:00:02.635Z,10.93
2019-04-27T03:02:42.336Z,2.97
2019-04-27T03:05:20.240Z,3.93
2019-04-27T03:07:50.370Z,3.53
2019-04-27T03:10:20.051Z,3.23
2019-04-27T03:12:54.973Z,4.13
2019-04-27T03:15:34.333Z,3.40
2019-04-27T03:18:10.017Z,5.37
2019-04-27T03:20:52.608Z,6.77
2019-04-27T03:23:21.962Z,3.40
2019-04-27T03:26:01.048Z,4.30
2019-04-27T03:28:30.334Z,3.10
2019-04-27T03:31:02.502Z,5.77
2019-04-27T03:33:32.714Z,3.87
2019-04-27T03:36:03.049Z,3.80
2019-04-27T03:38:32.560Z,3.80
2019-04-27T03:41:02.523Z,5.27
2019-04-27T03:43:31.851Z,5.60
2019-04-27T03:46:01.192Z,5.30
2019-04-27T03:48:30.517Z,4.10
2019-04-27T03:51:33.908Z,5.60
2019-04-27T03:54:31.131Z,5.50
2019-04-27T03:57:15.821Z,6.27
2019-04-27T04:00:09.898Z,4.57
2019-04-27T04:02:40.498Z,5.07
2019-04-27T04:05:09.841Z,5.03
2019-04-27T04:07:40.345Z,3.97
2019-04-27T04:10:11.031Z,3.47
2019-04-27T04:13:10.738Z,4.47
2019-04-27T04:16:00.183Z,3.17
2019-04-27T04:18:31.763Z,4.97
2019-04-27T04:21:01.307Z,3.67
2019-04-27T04:23:30.610Z,5.47
2019-04-27T04:25:59.945Z,4.40
2019-04-27T04:28:30.054Z,3.83
2019-04-27T04:31:00.525Z,4.67
2019-04-27T04:33:30.470Z,5.27
2019-04-27T04:36:00.317Z,4.10
2019-04-27T04:38:31.081Z,4.63
2019-04-27T04:41:04.226Z,2.87
2019-04-27T04:43:55.300Z,2.43
2019-04-27T04:46:52.357Z,3.63
2019-04-27T04:49:21.686Z,3.50
2019-04-27T04:51:51.036Z,4.00
2019-04-27T04:54:24.211Z,3.27
2019-04-27T04:56:51.403Z,2.13
2019-04-27T04:59:20.703Z,4.50
2019-04-27T05:01:50.168Z,3.30
2019-04-27T05:04:19.540Z,2.53
2019-04-27T05:06:50.679Z,2.77
2019-04-27T05:09:19.938Z,5.07
2019-04-27T05:11:49.231Z,3.13
2019-04-27T05:14:19.946Z,3.37
2019-04-27T05:16:49.690Z,2.07
2019-04-27T05:19:19.024Z,4.10
2019-04-27T05:21:49.143Z,4.47
2019-04-27T05:24:19.228Z,5.33
2019-04-27T05:26:48.823Z,3.43
2019-04-27T05:29:19.170Z,3.53
2019-04-27T05:31:49.097Z,3.87
2019-04-27T05:34:19.710Z,2.90
2019-04-27T05:36:52.482Z,7.57
2019-04-27T05:39:24.858Z,2.20
2019-04-27T05:41:51.252Z,4.63
2019-04-27T05:44:39.674Z,5.67
2019-04-27T05:47:36.017Z,2.40
2019-04-27T05:50:20.145Z,4.20
2019-04-27T05:52:49.525Z,8.37
2019-04-27T05:55:19.213Z,4.97
2019-04-27T05:57:49.119Z,6.27
2019-04-27T06:00:20.325Z,3.90
2019-04-27T06:02:49.938Z,4.93
2019-04-27T06:05:19.308Z,4.73
2019-04-27T06:07:48.924Z,3.63
2019-04-27T06:10:19.826Z,3.47
2019-04-27T06:12:49.287Z,4.70
2019-04-27T06:15:19.826Z,5.53
2019-04-27T06:17:49.312Z,5.93
2019-04-27T06:20:18.948Z,4.43
2019-04-27T06:22:48.895Z,4.17
2019-04-27T06:25:21.620Z,4.73
2019-04-27T06:27:49.681Z,4.20
2019-04-27T06:30:19.349Z,3.80
2019-04-27T06:32:49.515Z,6.20
2019-04-27T06:35:18.985Z,6.43
2019-04-27T06:37:49.296Z,5.60
2019-04-27T06:40:18.838Z,3.43
2019-04-27T06:42:48.686Z,7.27
2019-04-27T06:45:19.686Z,9.93
2019-04-27T06:47:51.158Z,9.33
2019-04-27T06:50:20.218Z,5.57
2019-04-27T06:52:49.741Z,5.67
2019-04-27T06:55:19.064Z,6.80
2019-04-27T06:57:49.087Z,6.73
2019-04-27T07:00:18.976Z,6.77
2019-04-27T07:02:49.299Z,7.07
2019-04-27T07:05:20.333Z,4.63
2019-04-27T07:07:49.885Z,6.57
2019-04-27T07:10:19.316Z,5.67
2019-04-27T07:12:49.269Z,7.83
2019-04-27T07:15:20.423Z,8.20
2019-04-27T07:17:49.841Z,5.67
2019-04-27T07:20:19.233Z,6.23
2019-04-27T07:22:49.636Z,7.03
2019-04-27T07:25:19.339Z,7.20
2019-04-27T07:27:49.465Z,6.70
2019-04-27T07:30:19.239Z,6.03
2019-04-27T07:32:48.903Z,5.80
2019-04-27T07:35:19.652Z,8.47
2019-04-27T07:37:49.179Z,6.40
2019-04-27T07:40:18.848Z,8.97
2019-04-27T07:42:50.999Z,6.53
2019-04-27T07:45:33.564Z,6.67
2019-04-27T07:48:03.012Z,6.17
2019-04-27T07:50:32.361Z,6.63
2019-04-27T07:53:01.834Z,5.63
2019-04-27T07:55:31.257Z,6.97
2019-04-27T07:58:00.603Z,6.37
2019-04-27T08:00:29.956Z,10.70
2019-04-27T08:03:00.706Z,7.53
2019-04-27T08:05:30.119Z,6.70
2019-04-27T08:08:00.190Z,7.87
2019-04-27T08:10:29.680Z,6.37
2019-04-27T08:12:59.703Z,8.60
2019-04-27T08:15:29.639Z,7.60
2019-04-27T08:17:59.363Z,7.60
2019-04-27T08:20:31.796Z,10.40
2019-04-27T08:23:01.411Z,7.23
2019-04-27T08:25:31.216Z,7.03
2019-04-27T08:28:10.467Z,8.33
2019-04-27T08:31:00.439Z,8.87
2019-04-27T08:33:29.875Z,9.27
2019-04-27T08:35:59.281Z,10.03
2019-04-27T08:38:29.019Z,7.97
2019-04-27T08:40:59.241Z,8.60
2019-04-27T08:43:34.192Z,9.93
2019-04-27T08:46:03.552Z,9.20
2019-04-27T08:48:36.878Z,9.97
2019-04-27T08:51:03.932Z,13.80
2019-04-27T08:53:33.314Z,11.23
2019-04-27T08:56:02.655Z,10.30
2019-04-27T08:58:32.040Z,12.57
2019-04-27T09:01:01.423Z,14.53
2019-04-27T09:03:30.774Z,14.13
2019-04-27T09:06:04.425Z,10.27
2019-04-27T09:08:49.618Z,11.20
2019-04-27T09:11:34.468Z,12.70
2019-04-27T09:14:34.728Z,9.97
2019-04-27T09:17:19.348Z,12.13
2019-04-27T09:20:04.811Z,9.93
2019-04-27T09:22:34.154Z,9.53
2019-04-27T09:25:03.510Z,10.23
2019-04-27T09:27:32.860Z,10.03
2019-04-27T09:30:02.192Z,10.03
2019-04-27T09:32:31.547Z,11.97
2019-04-27T09:35:00.925Z,11.17
2019-04-27T09:37:30.260Z,9.47
2019-04-27T09:39:59.580Z,11.40
2019-04-27T09:42:28.947Z,11.67
2019-04-27T09:44:58.238Z,7.13
2019-04-27T09:47:27.609Z,9.07
2019-04-27T09:49:57.018Z,3.47
2019-04-27T09:52:28.290Z,5.53
2019-04-27T09:54:57.430Z,6.27
2019-04-27T09:57:26.772Z,3.37
2019-04-27T09:59:56.518Z,6.80
2019-04-27T10:02:26.999Z,6.77
2019-04-27T10:04:56.619Z,5.80
2019-04-27T10:07:26.807Z,7.30
2019-04-27T10:09:56.463Z,4.83
2019-04-27T10:12:26.165Z,4.87
2019-04-27T10:14:56.070Z,8.90
2019-04-27T10:17:26.000Z,8.13
2019-04-27T10:19:56.971Z,9.47
2019-04-27T10:22:39.925Z,6.53
2019-04-27T10:24:57.570Z,8.33
2019-04-27T10:27:26.916Z,12.87
2019-04-27T10:29:56.667Z,10.03
2019-04-27T10:32:27.438Z,9.97
2019-04-27T10:34:56.788Z,6.60
2019-04-27T10:37:26.729Z,6.70
2019-04-27T10:39:56.123Z,8.53
2019-04-27T10:42:27.165Z,10.10
2019-04-27T10:44:56.631Z,6.43
2019-04-27T10:47:26.117Z,5.67
2019-04-27T10:49:56.695Z,4.43
2019-04-27T10:52:26.319Z,6.10
2019-04-27T10:54:57.411Z,7.50
2019-04-27T10:57:27.201Z,9.40
2019-04-27T10:59:56.598Z,7.73
2019-04-27T11:02:25.912Z,9.10
2019-04-27T11:05:04.043Z,8.13
2019-04-27T11:07:36.333Z,8.30
2019-04-27T11:10:07.651Z,6.93
2019-04-27T11:12:37.251Z,7.87
2019-04-27T11:15:07.850Z,6.73
2019-04-27T11:17:37.259Z,9.43
2019-04-27T11:20:07.767Z,10.43
2019-04-27T11:22:37.204Z,5.30
2019-04-27T11:25:07.085Z,5.23
2019-04-27T11:27:36.458Z,6.80
2019-04-27T11:30:06.775Z,6.83
2019-04-27T11:32:36.415Z,7.53
2019-04-27T11:35:23.129Z,9.30
2019-04-27T11:37:53.152Z,11.33
2019-04-27T11:40:23.226Z,7.10
2019-04-27T11:42:52.604Z,7.30
2019-04-27T11:45:22.024Z,8.97
2019-04-27T11:47:51.353Z,7.93
2019-04-27T11:50:20.774Z,5.50
2019-04-27T11:52:50.155Z,6.27
2019-04-27T11:55:19.827Z,9.53
2019-04-27T11:57:49.227Z,7.10
2019-04-27T12:00:21.465Z,5.03
2019-04-27T12:02:50.774Z,5.20
2019-04-27T12:05:22.255Z,4.00
2019-04-27T12:07:56.223Z,4.67
2019-04-27T12:10:26.363Z,3.63
2019-04-27T12:12:56.353Z,3.63
2019-04-27T12:15:27.929Z,4.33
2019-04-27T12:18:00.383Z,5.53
2019-04-27T12:20:31.725Z,2.67
2019-04-27T12:23:00.957Z,4.17
2019-04-27T12:25:30.321Z,2.57
2019-04-27T12:28:06.267Z,2.03
2019-04-27T12:30:43.180Z,3.20
2019-04-27T12:33:12.540Z,2.93
2019-04-27T12:35:41.946Z,6.90
2019-04-27T12:38:11.474Z,2.33
2019-04-27T12:40:40.864Z,2.63
2019-04-27T12:43:10.309Z,3.33
2019-04-27T12:45:41.986Z,2.07
2019-04-27T12:48:10.842Z,2.10
2019-04-27T12:50:40.418Z,3.43
2019-04-27T12:53:14.331Z,3.07
2019-04-27T12:56:02.964Z,6.30
2019-04-27T12:58:40.825Z,3.77
2019-04-27T13:01:11.900Z,3.23
2019-04-27T13:03:41.248Z,3.07
2019-04-27T13:06:10.703Z,5.73
2019-04-27T13:08:40.138Z,4.80
2019-04-27T13:11:09.560Z,3.60
2019-04-27T13:13:38.898Z,4.13
2019-04-27T13:16:08.252Z,4.63
2019-04-27T13:18:37.768Z,7.27
2019-04-27T13:21:07.192Z,2.50
2019-04-27T13:23:37.203Z,7.87
2019-04-27T13:26:06.710Z,5.57
2019-04-27T13:28:36.051Z,3.57
2019-04-27T13:31:06.738Z,5.87
2019-04-27T13:33:38.256Z,4.17
2019-04-27T13:36:07.729Z,6.50
2019-04-27T13:38:37.152Z,3.57
2019-04-27T13:41:09.873Z,5.73
2019-04-27T13:43:40.037Z,6.70
2019-04-27T13:46:31.502Z,4.53
2019-04-27T13:49:18.649Z,7.00
2019-04-27T13:51:53.320Z,6.73
2019-04-27T13:54:26.363Z,6.37
2019-04-27T13:56:53.784Z,4.43
2019-04-27T13:59:23.108Z,4.90
2019-04-27T14:01:52.524Z,4.30
2019-04-27T14:04:21.909Z,3.77
2019-04-27T14:06:51.355Z,1.63
2019-04-27T14:09:20.981Z,2.40
2019-04-27T14:11:52.142Z,2.97
2019-04-27T14:14:21.547Z,1.47
2019-04-27T14:16:51.214Z,1.80
2019-04-27T14:19:20.630Z,3.43
2019-04-27T14:21:49.976Z,3.07
2019-04-27T14:24:27.747Z,2.73
2019-04-27T14:26:50.513Z,2.57
2019-04-27T14:29:19.870Z,2.87
2019-04-27T14:31:49.815Z,4.40
2019-04-27T14:34:19.304Z,11.23
2019-04-27T14:36:48.936Z,3.63
2019-04-27T14:39:18.931Z,3.27
2019-04-27T14:41:49.126Z,7.37
2019-04-27T14:44:18.804Z,7.67
2019-04-27T14:46:48.636Z,6.13
2019-04-27T14:49:19.824Z,3.53
2019-04-27T14:51:49.409Z,4.07
2019-04-27T14:54:18.822Z,1.87
2019-04-27T14:56:48.875Z,4.37
2019-04-27T14:59:18.772Z,6.03
2019-04-27T15:01:48.761Z,5.93
2019-04-27T15:04:18.226Z,5.60
2019-04-27T15:06:48.656Z,5.50
2019-04-27T15:09:21.029Z,5.63
2019-04-27T15:11:53.331Z,3.60
2019-04-27T15:14:23.736Z,3.73
2019-04-27T15:16:53.398Z,4.73
2019-04-27T15:19:34.105Z,6.53
2019-04-27T15:22:04.872Z,4.40
2019-04-27T15:24:34.224Z,5.40
2019-04-27T15:27:04.144Z,5.57
2019-04-27T15:29:34.076Z,4.43
2019-04-27T15:32:05.061Z,4.00
2019-04-27T15:34:48.228Z,3.07
2019-04-27T15:37:23.766Z,5.87
2019-04-27T15:40:16.364Z,3.93
2019-04-27T15:42:58.052Z,4.90
2019-04-27T15:45:28.606Z,9.77
2019-04-27T15:47:58.486Z,7.13
2019-04-27T15:50:32.260Z,8.23
2019-04-27T15:53:09.393Z,5.67
2019-04-27T15:55:39.518Z,5.47
2019-04-27T15:58:11.703Z,8.93
2019-04-27T16:00:41.555Z,9.00
2019-04-27T16:03:10.937Z,7.97
2019-04-27T16:05:40.321Z,5.23
2019-04-27T16:08:15.211Z,6.67
2019-04-27T16:10:40.728Z,6.67
2019-04-27T16:13:15.124Z,6.87
2019-04-27T16:15:42.217Z,8.13
2019-04-27T16:18:11.551Z,8.33
2019-04-27T16:20:40.914Z,6.27
2019-04-27T16:23:10.384Z,8.77
2019-04-27T16:25:48.593Z,9.13
2019-04-27T16:28:13.349Z,7.17
2019-04-27T16:30:45.703Z,11.03
2019-04-27T16:33:15.456Z,7.10
2019-04-27T16:35:44.971Z,17.37
2019-04-27T16:38:33.645Z,8.60
2019-04-27T16:41:03.377Z,10.60
2019-04-27T16:43:32.878Z,5.67
2019-04-27T16:46:04.652Z,4.60
2019-04-27T16:48:39.030Z,8.10
2019-04-27T16:51:10.570Z,7.93
2019-04-27T16:53:41.193Z,3.73
2019-04-27T16:56:14.696Z,9.90
2019-04-27T16:58:41.792Z,5.17
2019-04-27T17:01:28.485Z,7.47
2019-04-27T17:03:59.331Z,4.47
2019-04-27T17:06:29.579Z,4.93
2019-04-27T17:09:05.634Z,3.27
2019-04-27T17:11:33.119Z,3.77
2019-04-27T17:14:09.860Z,5.13
2019-04-27T17:16:51.790Z,4.50
2019-04-27T17:19:24.828Z,4.10
2019-04-27T17:21:55.636Z,7.93
2019-04-27T17:24:43.788Z,2.47
2019-04-27T17:27:11.602Z,2.80
2019-04-27T17:29:41.614Z,5.13
2019-04-27T17:32:30.306Z,3.43
2019-04-27T17:35:05.012Z,4.77
2019-04-27T17:37:33.755Z,6.27
2019-04-27T17:40:03.564Z,4.53
2019-04-27T17:42:33.008Z,4.87
2019-04-27T17:45:02.368Z,6.27
2019-04-27T17:47:33.828Z,8.13
2019-04-27T17:50:06.368Z,7.67
2019-04-27T17:52:37.838Z,6.73
2019-04-27T17:55:08.634Z,6.97
2019-04-27T17:57:39.097Z,6.63
2019-04-27T18:00:09.703Z,6.37
2019-04-27T18:02:42.418Z,6.50
2019-04-27T18:05:13.835Z,7.77
2019-04-27T18:07:44.198Z,10.57
2019-04-27T18:10:21.148Z,7.33
2019-04-27T18:12:48.455Z,3.93
2019-04-27T18:15:16.188Z,9.60
2019-04-27T18:17:52.057Z,6.23
2019-04-27T18:20:23.966Z,8.67
2019-04-27T18:23:00.159Z,4.93
2019-04-27T18:25:35.613Z,4.63
2019-04-27T18:28:14.695Z,7.93
2019-04-27T18:31:01.027Z,7.47
2019-04-27T18:33:32.602Z,6.00
2019-04-27T18:36:05.449Z,7.20
2019-04-27T18:38:35.457Z,6.30
2019-04-27T18:41:08.132Z,4.90
2019-04-27T18:43:38.899Z,4.50
2019-04-27T18:46:10.571Z,7.00
2019-04-27T18:49:01.674Z,5.87
2019-04-27T18:51:57.807Z,6.40
2019-04-27T18:54:33.019Z,5.80
2019-04-27T18:57:04.590Z,7.30
2019-04-27T18:59:32.608Z,7.97
2019-04-27T19:02:02.035Z,5.93
2019-04-27T19:04:31.509Z,8.47
2019-04-27T19:07:00.942Z,11.53
2019-04-27T19:09:30.355Z,11.73
2019-04-27T19:11:59.760Z,7.63
2019-04-27T19:14:29.098Z,8.27
2019-04-27T19:16:58.832Z,13.17
2019-04-27T19:19:28.240Z,10.80
2019-04-27T19:21:58.915Z,16.13
2019-04-27T19:24:28.735Z,8.57
2019-04-27T19:27:18.296Z,8.27
2019-04-27T19:29:48.783Z,6.33
2019-04-27T19:32:18.193Z,9.53
2019-04-27T19:34:48.006Z,9.73
2019-04-27T19:37:18.366Z,9.67
2019-04-27T19:39:50.365Z,8.17
2019-04-27T19:42:20.781Z,11.80
2019-04-27T19:44:52.253Z,10.37
2019-04-27T19:47:22.125Z,6.87
2019-04-27T19:49:51.471Z,6.67
2019-04-27T19:52:22.696Z,8.57
2019-04-27T19:54:55.073Z,6.17
2019-04-27T19:57:34.531Z,10.83
2019-04-27T19:59:58.960Z,8.00
2019-04-27T20:02:28.770Z,10.77
2019-04-27T20:05:06.482Z,7.60
2019-04-27T20:07:37.906Z,10.27
2019-04-27T20:10:08.934Z,9.97
2019-04-27T20:12:38.337Z,8.53
2019-04-27T20:15:08.697Z,8.03
2019-04-27T20:17:38.020Z,12.90
2019-04-27T20:20:08.385Z,12.00
2019-04-27T20:22:37.839Z,7.47
2019-04-27T20:25:08.035Z,7.73
2019-04-27T20:27:45.946Z,7.20
2019-04-27T20:30:14.005Z,6.20
2019-04-27T20:32:43.353Z,6.10
2019-04-27T20:35:12.700Z,14.53
2019-04-27T20:37:42.057Z,8.90
2019-04-27T20:40:11.961Z,15.37
2019-04-27T20:42:41.636Z,8.40
2019-04-27T20:45:12.033Z,9.87
2019-04-27T20:47:41.818Z,9.07
2019-04-27T20:50:11.346Z,11.40
2019-04-27T20:52:59.647Z,9.10
2019-04-27T20:55:29.284Z,9.20
2019-04-27T20:58:02.338Z,6.97
2019-04-27T21:00:31.858Z,8.07
2019-04-27T21:03:19.865Z,10.50
2019-04-27T21:06:08.209Z,15.10
2019-04-27T21:08:38.645Z,10.13
2019-04-27T21:11:11.849Z,8.10
2019-04-27T21:13:41.424Z,14.70
2019-04-27T21:16:12.443Z,11.20
2019-04-27T21:18:42.090Z,12.70
2019-04-27T21:21:11.570Z,11.40
2019-04-27T21:23:41.532Z,10.00
2019-04-27T21:26:11.052Z,8.27
2019-04-27T21:28:41.602Z,13.00
2019-04-27T21:31:12.750Z,14.27
2019-04-27T21:33:54.387Z,14.87
2019-04-27T21:36:53.897Z,13.17
2019-04-27T21:40:14.393Z,8.83
2019-04-27T21:42:55.891Z,11.27
2019-04-27T21:45:54.873Z,10.97
2019-04-27T21:48:53.909Z,10.57
2019-04-27T21:52:14.551Z,12.57
2019-04-27T21:54:54.949Z,10.40
2019-04-27T21:57:53.949Z,9.37
2019-04-27T22:01:06.690Z,12.73
2019-04-27T22:03:54.247Z,11.93
2019-04-27T22:06:53.221Z,12.63
2019-04-27T22:09:55.447Z,10.37
2019-04-27T22:12:54.548Z,15.90
2019-04-27T22:15:53.540Z,15.50
2019-04-27T22:18:55.838Z,10.67
2019-04-27T22:21:55.016Z,13.73
2019-04-27T22:25:05.270Z,13.43
2019-04-27T22:27:55.223Z,10.97
2019-04-27T22:30:54.376Z,10.13
2019-04-27T22:33:54.667Z,11.70
2019-04-27T22:36:53.780Z,10.63
2019-04-27T22:46:19.521Z,11.13
2019-04-27T22:48:54.722Z,14.97
2019-04-27T22:51:53.946Z,16.00
2019-04-27T22:54:53.311Z,11.90
2019-04-27T23:01:13.415Z,12.43
2019-04-27T23:03:55.245Z,12.47
2019-04-27T23:06:54.283Z,10.53
2019-04-27T23:09:53.311Z,11.40
2019-04-27T23:12:55.468Z,9.80
2019-04-27T23:15:28.123Z,11.50
2019-04-27T23:18:00.246Z,14.23
2019-04-27T23:20:53.081Z,14.50
2019-04-27T23:23:22.508Z,13.23
2019-04-27T23:25:54.982Z,13.67
2019-04-27T23:28:24.311Z,10.73
2019-04-27T23:31:04.998Z,13.47
2019-04-27T23:33:54.847Z,13.37
2019-04-27T23:36:54.033Z,10.00
2019-04-27T23:39:52.945Z,11.50
2019-04-27T23:42:22.232Z,11.47
2019-04-27T23:44:54.744Z,12.87
2019-04-27T23:47:24.047Z,10.57
2019-04-27T23:49:56.198Z,10.23
2019-04-27T23:53:13.136Z,15.03
2019-04-27T23:55:42.432Z,12.43
2019-04-27T23:58:11.760Z,10.13
